sensor_id;sensor_type;location;lat;lon;timestamp;P1;durP1;ratioP1;P2;durP2;ratioP2
40164;SDS011;25882;51.120;17.248;2022-11-13T00:02:04;28.83;;;14.63;;
40164;SDS011;25882;51.120;17.248;2022-11-13T00:04:30;30.80;;;15.02;;
40164;SDS011;25882;51.120;17.248;2022-11-13T00:06:57;24.33;;;13.90;;
40164;SDS011;25882;51.120;17.248;2022-11-13T00:09:23;25.77;;;13.82;;
40164;SDS011;25882;51.120;17.248;2022-11-13T00:11:49;24.55;;;13.50;;
40164;SDS011;25882;51.120;17.248;2022-11-13T00:14:15;29.58;;;14.82;;
40164;SDS011;25882;51.120;17.248;2022-11-13T00:16:41;26.50;;;13.50;;
40164;SDS011;25882;51.120;17.248;2022-11-13T00:19:07;27.92;;;13.98;;
40164;SDS011;25882;51.120;17.248;2022-11-13T00:21:33;28.08;;;14.00;;
40164;SDS011;25882;51.120;17.248;2022-11-13T00:24:01;25.58;;;13.50;;
40164;SDS011;25882;51.120;17.248;2022-11-13T00:26:27;26.77;;;12.70;;
40164;SDS011;25882;51.120;17.248;2022-11-13T00:28:54;27.95;;;13.50;;
40164;SDS011;25882;51.120;17.248;2022-11-13T00:31:20;27.42;;;13.93;;
40164;SDS011;25882;51.120;17.248;2022-11-13T00:33:46;24.13;;;12.30;;
40164;SDS011;25882;51.120;17.248;2022-11-13T00:36:13;30.00;;;13.98;;
40164;SDS011;25882;51.120;17.248;2022-11-13T00:38:39;22.98;;;12.27;;
40164;SDS011;25882;51.120;17.248;2022-11-13T00:41:07;26.90;;;13.25;;
40164;SDS011;25882;51.120;17.248;2022-11-13T00:43:33;24.70;;;12.25;;
40164;SDS011;25882;51.120;17.248;2022-11-13T00:45:59;25.70;;;12.50;;
40164;SDS011;25882;51.120;17.248;2022-11-13T00:48:24;25.85;;;13.00;;
40164;SDS011;25882;51.120;17.248;2022-11-13T00:50:51;27.83;;;13.23;;
40164;SDS011;25882;51.120;17.248;2022-11-13T00:53:16;26.85;;;14.57;;
40164;SDS011;25882;51.120;17.248;2022-11-13T00:55:42;27.80;;;12.93;;
40164;SDS011;25882;51.120;17.248;2022-11-13T00:58:10;25.27;;;12.38;;
40164;SDS011;25882;51.120;17.248;2022-11-13T01:00:36;27.30;;;14.07;;
40164;SDS011;25882;51.120;17.248;2022-11-13T01:03:02;26.08;;;13.30;;
40164;SDS011;25882;51.120;17.248;2022-11-13T01:05:28;27.98;;;15.35;;
40164;SDS011;25882;51.120;17.248;2022-11-13T01:07:54;29.98;;;14.75;;
40164;SDS011;25882;51.120;17.248;2022-11-13T01:10:20;27.85;;;14.82;;
40164;SDS011;25882;51.120;17.248;2022-11-13T01:12:46;32.70;;;16.05;;
40164;SDS011;25882;51.120;17.248;2022-11-13T01:15:14;30.98;;;14.88;;
40164;SDS011;25882;51.120;17.248;2022-11-13T01:17:40;28.40;;;14.07;;
40164;SDS011;25882;51.120;17.248;2022-11-13T01:20:06;30.75;;;15.02;;
40164;SDS011;25882;51.120;17.248;2022-11-13T01:22:32;29.25;;;14.30;;
40164;SDS011;25882;51.120;17.248;2022-11-13T01:24:58;27.55;;;14.38;;
40164;SDS011;25882;51.120;17.248;2022-11-13T01:27:24;28.95;;;15.85;;
40164;SDS011;25882;51.120;17.248;2022-11-13T01:29:50;35.15;;;17.65;;
40164;SDS011;25882;51.120;17.248;2022-11-13T01:32:18;39.85;;;19.65;;
40164;SDS011;25882;51.120;17.248;2022-11-13T01:34:43;36.63;;;17.38;;
40164;SDS011;25882;51.120;17.248;2022-11-13T01:37:09;34.90;;;18.40;;
40164;SDS011;25882;51.120;17.248;2022-11-13T01:39:35;42.30;;;18.98;;
40164;SDS011;25882;51.120;17.248;2022-11-13T01:42:01;40.05;;;17.98;;
40164;SDS011;25882;51.120;17.248;2022-11-13T01:49:35;34.45;;;17.40;;
40164;SDS011;25882;51.120;17.248;2022-11-13T01:52:02;38.15;;;18.63;;
40164;SDS011;25882;51.120;17.248;2022-11-13T01:54:30;35.40;;;17.73;;
40164;SDS011;25882;51.120;17.248;2022-11-13T01:56:56;34.35;;;17.52;;
40164;SDS011;25882;51.120;17.248;2022-11-13T01:59:23;35.72;;;18.35;;
40164;SDS011;25882;51.120;17.248;2022-11-13T02:01:50;31.98;;;17.38;;
40164;SDS011;25882;51.120;17.248;2022-11-13T02:04:16;35.92;;;17.63;;
40164;SDS011;25882;51.120;17.248;2022-11-13T02:06:44;40.60;;;17.65;;
40164;SDS011;25882;51.120;17.248;2022-11-13T02:09:11;37.25;;;18.48;;
40164;SDS011;25882;51.120;17.248;2022-11-13T02:11:38;34.80;;;17.65;;
40164;SDS011;25882;51.120;17.248;2022-11-13T02:14:04;37.40;;;17.90;;
40164;SDS011;25882;51.120;17.248;2022-11-13T02:16:34;42.60;;;19.17;;
40164;SDS011;25882;51.120;17.248;2022-11-13T02:19:03;37.47;;;17.75;;
40164;SDS011;25882;51.120;17.248;2022-11-13T02:21:32;36.50;;;17.58;;
40164;SDS011;25882;51.120;17.248;2022-11-13T02:24:02;39.28;;;17.55;;
40164;SDS011;25882;51.120;17.248;2022-11-13T02:26:31;41.10;;;19.67;;
40164;SDS011;25882;51.120;17.248;2022-11-13T02:28:57;36.65;;;18.85;;
40164;SDS011;25882;51.120;17.248;2022-11-13T02:31:23;36.90;;;18.13;;
40164;SDS011;25882;51.120;17.248;2022-11-13T02:33:49;43.50;;;18.95;;
40164;SDS011;25882;51.120;17.248;2022-11-13T02:36:15;35.95;;;17.58;;
40164;SDS011;25882;51.120;17.248;2022-11-13T02:38:41;37.25;;;19.23;;
40164;SDS011;25882;51.120;17.248;2022-11-13T02:41:08;40.45;;;18.95;;
40164;SDS011;25882;51.120;17.248;2022-11-13T02:43:35;45.17;;;19.33;;
40164;SDS011;25882;51.120;17.248;2022-11-13T02:46:01;41.38;;;20.45;;
40164;SDS011;25882;51.120;17.248;2022-11-13T02:48:27;37.78;;;19.50;;
40164;SDS011;25882;51.120;17.248;2022-11-13T02:50:53;41.58;;;19.00;;
40164;SDS011;25882;51.120;17.248;2022-11-13T02:53:18;39.60;;;19.20;;
40164;SDS011;25882;51.120;17.248;2022-11-13T02:55:45;44.63;;;21.35;;
40164;SDS011;25882;51.120;17.248;2022-11-13T02:58:10;43.03;;;21.92;;
40164;SDS011;25882;51.120;17.248;2022-11-13T03:03:56;41.35;;;19.38;;
40164;SDS011;25882;51.120;17.248;2022-11-13T03:06:22;42.58;;;20.70;;
40164;SDS011;25882;51.120;17.248;2022-11-13T03:08:48;46.45;;;22.33;;
40164;SDS011;25882;51.120;17.248;2022-11-13T03:11:14;44.33;;;21.73;;
40164;SDS011;25882;51.120;17.248;2022-11-13T03:13:40;45.15;;;23.17;;
40164;SDS011;25882;51.120;17.248;2022-11-13T03:16:09;48.50;;;22.85;;
40164;SDS011;25882;51.120;17.248;2022-11-13T03:18:36;44.43;;;22.07;;
40164;SDS011;25882;51.120;17.248;2022-11-13T03:21:10;56.28;;;24.58;;
40164;SDS011;25882;51.120;17.248;2022-11-13T03:23:37;49.47;;;24.85;;
40164;SDS011;25882;51.120;17.248;2022-11-13T03:26:04;54.65;;;24.15;;
40164;SDS011;25882;51.120;17.248;2022-11-13T03:28:30;53.20;;;23.58;;
40164;SDS011;25882;51.120;17.248;2022-11-13T03:30:56;45.05;;;21.88;;
40164;SDS011;25882;51.120;17.248;2022-11-13T03:33:22;44.50;;;22.67;;
40164;SDS011;25882;51.120;17.248;2022-11-13T03:35:48;50.28;;;23.73;;
40164;SDS011;25882;51.120;17.248;2022-11-13T03:38:15;50.20;;;23.73;;
40164;SDS011;25882;51.120;17.248;2022-11-13T03:40:41;51.33;;;23.10;;
40164;SDS011;25882;51.120;17.248;2022-11-13T03:43:07;48.85;;;23.90;;
40164;SDS011;25882;51.120;17.248;2022-11-13T03:45:33;49.50;;;23.50;;
40164;SDS011;25882;51.120;17.248;2022-11-13T03:47:59;49.85;;;22.92;;
40164;SDS011;25882;51.120;17.248;2022-11-13T03:50:25;52.97;;;22.58;;
40164;SDS011;25882;51.120;17.248;2022-11-13T03:52:51;48.13;;;22.48;;
40164;SDS011;25882;51.120;17.248;2022-11-13T03:55:18;47.47;;;23.88;;
40164;SDS011;25882;51.120;17.248;2022-11-13T03:57:45;44.55;;;21.50;;
40164;SDS011;25882;51.120;17.248;2022-11-13T04:00:11;43.30;;;20.92;;
40164;SDS011;25882;51.120;17.248;2022-11-13T04:02:37;46.40;;;24.80;;
40164;SDS011;25882;51.120;17.248;2022-11-13T04:05:04;47.88;;;22.98;;
40164;SDS011;25882;51.120;17.248;2022-11-13T04:07:30;47.15;;;22.58;;
40164;SDS011;25882;51.120;17.248;2022-11-13T04:09:56;50.83;;;22.83;;
40164;SDS011;25882;51.120;17.248;2022-11-13T04:12:23;49.83;;;24.00;;
40164;SDS011;25882;51.120;17.248;2022-11-13T04:14:49;45.78;;;23.48;;
40164;SDS011;25882;51.120;17.248;2022-11-13T04:17:15;46.03;;;22.45;;
40164;SDS011;25882;51.120;17.248;2022-11-13T04:19:41;45.88;;;22.73;;
40164;SDS011;25882;51.120;17.248;2022-11-13T04:22:07;50.30;;;23.20;;
40164;SDS011;25882;51.120;17.248;2022-11-13T04:24:32;51.67;;;26.45;;
40164;SDS011;25882;51.120;17.248;2022-11-13T04:26:59;51.67;;;24.40;;
40164;SDS011;25882;51.120;17.248;2022-11-13T04:29:26;47.45;;;21.83;;
40164;SDS011;25882;51.120;17.248;2022-11-13T04:31:51;53.97;;;24.65;;
40164;SDS011;25882;51.120;17.248;2022-11-13T04:34:17;50.47;;;24.45;;
40164;SDS011;25882;51.120;17.248;2022-11-13T04:36:43;47.10;;;23.67;;
40164;SDS011;25882;51.120;17.248;2022-11-13T04:39:09;47.28;;;22.92;;
40164;SDS011;25882;51.120;17.248;2022-11-13T04:41:35;45.92;;;22.38;;
40164;SDS011;25882;51.120;17.248;2022-11-13T04:44:19;47.25;;;23.92;;
40164;SDS011;25882;51.120;17.248;2022-11-13T04:46:47;49.70;;;23.40;;
40164;SDS011;25882;51.120;17.248;2022-11-13T04:49:13;46.45;;;23.05;;
40164;SDS011;25882;51.120;17.248;2022-11-13T04:51:39;46.45;;;24.20;;
40164;SDS011;25882;51.120;17.248;2022-11-13T04:54:05;46.90;;;22.83;;
40164;SDS011;25882;51.120;17.248;2022-11-13T04:56:30;51.47;;;25.38;;
40164;SDS011;25882;51.120;17.248;2022-11-13T04:58:56;44.58;;;22.50;;
40164;SDS011;25882;51.120;17.248;2022-11-13T05:01:22;52.05;;;23.38;;
40164;SDS011;25882;51.120;17.248;2022-11-13T05:03:50;43.85;;;23.63;;
40164;SDS011;25882;51.120;17.248;2022-11-13T05:06:15;46.38;;;22.02;;
40164;SDS011;25882;51.120;17.248;2022-11-13T05:08:41;44.33;;;22.42;;
40164;SDS011;25882;51.120;17.248;2022-11-13T05:11:07;54.13;;;23.73;;
40164;SDS011;25882;51.120;17.248;2022-11-13T05:13:33;46.00;;;22.50;;
40164;SDS011;25882;51.120;17.248;2022-11-13T05:16:00;41.80;;;21.95;;
40164;SDS011;25882;51.120;17.248;2022-11-13T05:18:26;42.38;;;22.65;;
40164;SDS011;25882;51.120;17.248;2022-11-13T05:20:53;41.03;;;20.50;;
40164;SDS011;25882;51.120;17.248;2022-11-13T05:23:19;47.45;;;23.17;;
40164;SDS011;25882;51.120;17.248;2022-11-13T05:25:45;42.85;;;21.48;;
40164;SDS011;25882;51.120;17.248;2022-11-13T05:28:11;41.88;;;21.40;;
40164;SDS011;25882;51.120;17.248;2022-11-13T05:30:37;42.20;;;21.00;;
40164;SDS011;25882;51.120;17.248;2022-11-13T05:33:03;40.42;;;20.88;;
40164;SDS011;25882;51.120;17.248;2022-11-13T05:35:28;43.38;;;21.60;;
40164;SDS011;25882;51.120;17.248;2022-11-13T05:37:58;43.47;;;22.13;;
40164;SDS011;25882;51.120;17.248;2022-11-13T05:40:24;43.90;;;21.13;;
40164;SDS011;25882;51.120;17.248;2022-11-13T05:42:51;43.70;;;21.00;;
40164;SDS011;25882;51.120;17.248;2022-11-13T05:45:18;44.45;;;20.55;;
40164;SDS011;25882;51.120;17.248;2022-11-13T05:47:43;40.45;;;21.02;;
40164;SDS011;25882;51.120;17.248;2022-11-13T05:50:09;43.15;;;20.63;;
40164;SDS011;25882;51.120;17.248;2022-11-13T05:52:35;42.17;;;21.25;;
40164;SDS011;25882;51.120;17.248;2022-11-13T05:55:03;41.80;;;21.17;;
40164;SDS011;25882;51.120;17.248;2022-11-13T05:57:29;46.90;;;22.17;;
40164;SDS011;25882;51.120;17.248;2022-11-13T05:59:55;43.33;;;21.98;;
40164;SDS011;25882;51.120;17.248;2022-11-13T06:02:21;41.88;;;21.08;;
40164;SDS011;25882;51.120;17.248;2022-11-13T06:04:47;44.60;;;21.83;;
40164;SDS011;25882;51.120;17.248;2022-11-13T06:07:13;45.08;;;21.75;;
40164;SDS011;25882;51.120;17.248;2022-11-13T06:09:39;38.50;;;20.88;;
40164;SDS011;25882;51.120;17.248;2022-11-13T06:12:07;52.65;;;24.67;;
40164;SDS011;25882;51.120;17.248;2022-11-13T06:14:33;45.00;;;25.33;;
40164;SDS011;25882;51.120;17.248;2022-11-13T06:16:59;46.70;;;22.33;;
40164;SDS011;25882;51.120;17.248;2022-11-13T06:19:25;54.22;;;24.70;;
40164;SDS011;25882;51.120;17.248;2022-11-13T06:21:51;49.50;;;25.52;;
40164;SDS011;25882;51.120;17.248;2022-11-13T06:24:16;46.65;;;23.73;;
40164;SDS011;25882;51.120;17.248;2022-11-13T06:26:42;48.88;;;24.40;;
40164;SDS011;25882;51.120;17.248;2022-11-13T06:29:10;48.00;;;24.15;;
40164;SDS011;25882;51.120;17.248;2022-11-13T06:31:37;55.08;;;25.50;;
40164;SDS011;25882;51.120;17.248;2022-11-13T06:34:03;54.70;;;27.58;;
40164;SDS011;25882;51.120;17.248;2022-11-13T06:36:30;56.65;;;26.55;;
40164;SDS011;25882;51.120;17.248;2022-11-13T06:38:57;53.60;;;26.25;;
40164;SDS011;25882;51.120;17.248;2022-11-13T06:41:24;56.33;;;27.80;;
40164;SDS011;25882;51.120;17.248;2022-11-13T06:43:50;52.88;;;26.85;;
40164;SDS011;25882;51.120;17.248;2022-11-13T06:46:18;61.55;;;30.63;;
40164;SDS011;25882;51.120;17.248;2022-11-13T06:48:45;57.30;;;29.45;;
40164;SDS011;25882;51.120;17.248;2022-11-13T06:51:12;61.17;;;31.30;;
40164;SDS011;25882;51.120;17.248;2022-11-13T06:53:38;55.30;;;29.38;;
40164;SDS011;25882;51.120;17.248;2022-11-13T06:56:04;60.97;;;30.60;;
40164;SDS011;25882;51.120;17.248;2022-11-13T06:58:31;57.17;;;28.30;;
40164;SDS011;25882;51.120;17.248;2022-11-13T07:00:57;57.00;;;28.77;;
40164;SDS011;25882;51.120;17.248;2022-11-13T07:03:24;65.90;;;30.65;;
40164;SDS011;25882;51.120;17.248;2022-11-13T07:05:51;61.30;;;30.70;;
40164;SDS011;25882;51.120;17.248;2022-11-13T07:08:17;57.38;;;28.75;;
40164;SDS011;25882;51.120;17.248;2022-11-13T07:10:50;51.88;;;29.52;;
40164;SDS011;25882;51.120;17.248;2022-11-13T07:13:17;58.47;;;29.45;;
40164;SDS011;25882;51.120;17.248;2022-11-13T07:15:43;63.95;;;30.38;;
40164;SDS011;25882;51.120;17.248;2022-11-13T07:18:08;60.15;;;28.95;;
40164;SDS011;25882;51.120;17.248;2022-11-13T07:20:36;52.08;;;27.35;;
40164;SDS011;25882;51.120;17.248;2022-11-13T07:23:02;58.33;;;27.50;;
40164;SDS011;25882;51.120;17.248;2022-11-13T07:25:28;54.75;;;27.83;;
40164;SDS011;25882;51.120;17.248;2022-11-13T07:27:55;57.85;;;28.58;;
40164;SDS011;25882;51.120;17.248;2022-11-13T07:30:21;57.67;;;28.63;;
40164;SDS011;25882;51.120;17.248;2022-11-13T07:32:47;53.13;;;28.85;;
40164;SDS011;25882;51.120;17.248;2022-11-13T07:35:13;54.28;;;27.60;;
40164;SDS011;25882;51.120;17.248;2022-11-13T07:37:41;52.80;;;27.55;;
40164;SDS011;25882;51.120;17.248;2022-11-13T07:40:07;56.63;;;27.20;;
40164;SDS011;25882;51.120;17.248;2022-11-13T07:42:33;46.33;;;24.85;;
40164;SDS011;25882;51.120;17.248;2022-11-13T07:44:59;49.90;;;26.35;;
40164;SDS011;25882;51.120;17.248;2022-11-13T07:47:26;53.10;;;26.58;;
40164;SDS011;25882;51.120;17.248;2022-11-13T07:49:52;52.92;;;25.45;;
40164;SDS011;25882;51.120;17.248;2022-11-13T07:52:19;48.55;;;25.20;;
40164;SDS011;25882;51.120;17.248;2022-11-13T07:54:46;45.83;;;25.73;;
40164;SDS011;25882;51.120;17.248;2022-11-13T07:57:13;48.25;;;24.33;;
40164;SDS011;25882;51.120;17.248;2022-11-13T07:59:39;47.08;;;24.85;;
40164;SDS011;25882;51.120;17.248;2022-11-13T08:02:05;45.70;;;24.88;;
40164;SDS011;25882;51.120;17.248;2022-11-13T08:04:33;48.17;;;27.35;;
40164;SDS011;25882;51.120;17.248;2022-11-13T08:06:59;57.00;;;27.55;;
40164;SDS011;25882;51.120;17.248;2022-11-13T08:09:25;52.22;;;26.55;;
40164;SDS011;25882;51.120;17.248;2022-11-13T08:11:53;55.08;;;29.85;;
40164;SDS011;25882;51.120;17.248;2022-11-13T08:14:19;51.33;;;28.13;;
40164;SDS011;25882;51.120;17.248;2022-11-13T08:16:45;68.18;;;34.58;;
40164;SDS011;25882;51.120;17.248;2022-11-13T08:19:11;56.20;;;30.05;;
40164;SDS011;25882;51.120;17.248;2022-11-13T08:21:37;58.72;;;29.27;;
40164;SDS011;25882;51.120;17.248;2022-11-13T08:24:03;65.18;;;31.30;;
40164;SDS011;25882;51.120;17.248;2022-11-13T08:26:29;56.20;;;28.00;;
40164;SDS011;25882;51.120;17.248;2022-11-13T08:28:56;56.72;;;28.67;;
40164;SDS011;25882;51.120;17.248;2022-11-13T08:31:23;58.03;;;26.92;;
40164;SDS011;25882;51.120;17.248;2022-11-13T08:33:48;59.90;;;27.90;;
40164;SDS011;25882;51.120;17.248;2022-11-13T08:36:15;57.78;;;27.42;;
40164;SDS011;25882;51.120;17.248;2022-11-13T08:38:40;59.80;;;29.30;;
40164;SDS011;25882;51.120;17.248;2022-11-13T08:41:07;59.10;;;28.77;;
40164;SDS011;25882;51.120;17.248;2022-11-13T08:43:32;62.58;;;31.33;;
40164;SDS011;25882;51.120;17.248;2022-11-13T08:46:00;63.47;;;28.63;;
40164;SDS011;25882;51.120;17.248;2022-11-13T08:48:26;57.72;;;28.20;;
40164;SDS011;25882;51.120;17.248;2022-11-13T08:50:52;61.72;;;28.88;;
40164;SDS011;25882;51.120;17.248;2022-11-13T08:53:18;52.03;;;26.95;;
40164;SDS011;25882;51.120;17.248;2022-11-13T08:55:45;61.15;;;26.85;;
40164;SDS011;25882;51.120;17.248;2022-11-13T08:58:11;56.58;;;28.52;;
40164;SDS011;25882;51.120;17.248;2022-11-13T09:00:37;56.13;;;26.08;;
40164;SDS011;25882;51.120;17.248;2022-11-13T09:03:05;54.10;;;24.67;;
40164;SDS011;25882;51.120;17.248;2022-11-13T09:05:31;51.08;;;24.85;;
40164;SDS011;25882;51.120;17.248;2022-11-13T09:07:58;53.20;;;27.00;;
40164;SDS011;25882;51.120;17.248;2022-11-13T09:10:24;51.85;;;26.33;;
40164;SDS011;25882;51.120;17.248;2022-11-13T09:12:54;59.10;;;27.65;;
40164;SDS011;25882;51.120;17.248;2022-11-13T09:15:20;57.70;;;26.83;;
40164;SDS011;25882;51.120;17.248;2022-11-13T09:17:46;53.38;;;26.98;;
40164;SDS011;25882;51.120;17.248;2022-11-13T09:20:14;54.80;;;25.15;;
40164;SDS011;25882;51.120;17.248;2022-11-13T09:22:40;53.10;;;26.27;;
40164;SDS011;25882;51.120;17.248;2022-11-13T09:25:06;56.83;;;29.25;;
40164;SDS011;25882;51.120;17.248;2022-11-13T09:27:32;57.30;;;26.88;;
40164;SDS011;25882;51.120;17.248;2022-11-13T09:29:59;54.25;;;24.85;;
40164;SDS011;25882;51.120;17.248;2022-11-13T09:32:25;44.00;;;23.73;;
40164;SDS011;25882;51.120;17.248;2022-11-13T09:34:51;56.38;;;26.48;;
40164;SDS011;25882;51.120;17.248;2022-11-13T09:37:18;52.58;;;25.27;;
40164;SDS011;25882;51.120;17.248;2022-11-13T09:39:44;47.83;;;25.20;;
40164;SDS011;25882;51.120;17.248;2022-11-13T09:42:11;47.75;;;23.67;;
40164;SDS011;25882;51.120;17.248;2022-11-13T09:44:39;49.88;;;24.45;;
40164;SDS011;25882;51.120;17.248;2022-11-13T09:47:07;47.22;;;23.95;;
40164;SDS011;25882;51.120;17.248;2022-11-13T09:49:36;48.65;;;25.25;;
40164;SDS011;25882;51.120;17.248;2022-11-13T09:52:04;49.65;;;26.58;;
40164;SDS011;25882;51.120;17.248;2022-11-13T09:54:36;50.95;;;25.85;;
40164;SDS011;25882;51.120;17.248;2022-11-13T09:57:05;52.55;;;27.05;;
40164;SDS011;25882;51.120;17.248;2022-11-13T09:59:36;53.50;;;27.13;;
40164;SDS011;25882;51.120;17.248;2022-11-13T10:02:09;55.13;;;29.38;;
40164;SDS011;25882;51.120;17.248;2022-11-13T10:04:43;53.95;;;27.13;;
40164;SDS011;25882;51.120;17.248;2022-11-13T10:07:13;58.17;;;28.77;;
40164;SDS011;25882;51.120;17.248;2022-11-13T10:09:48;53.17;;;27.45;;
40164;SDS011;25882;51.120;17.248;2022-11-13T10:12:17;59.47;;;29.98;;
40164;SDS011;25882;51.120;17.248;2022-11-13T10:14:43;56.25;;;28.80;;
40164;SDS011;25882;51.120;17.248;2022-11-13T10:17:12;51.53;;;26.52;;
40164;SDS011;25882;51.120;17.248;2022-11-13T10:19:41;56.05;;;29.00;;
40164;SDS011;25882;51.120;17.248;2022-11-13T10:22:10;54.42;;;28.73;;
40164;SDS011;25882;51.120;17.248;2022-11-13T10:24:40;54.38;;;26.30;;
40164;SDS011;25882;51.120;17.248;2022-11-13T10:27:09;57.85;;;30.13;;
40164;SDS011;25882;51.120;17.248;2022-11-13T10:29:35;52.92;;;28.13;;
40164;SDS011;25882;51.120;17.248;2022-11-13T10:32:13;58.58;;;28.67;;
40164;SDS011;25882;51.120;17.248;2022-11-13T10:34:39;58.15;;;28.77;;
40164;SDS011;25882;51.120;17.248;2022-11-13T10:37:12;56.58;;;29.27;;
40164;SDS011;25882;51.120;17.248;2022-11-13T10:39:42;55.05;;;27.55;;
40164;SDS011;25882;51.120;17.248;2022-11-13T10:42:20;56.88;;;28.52;;
40164;SDS011;25882;51.120;17.248;2022-11-13T10:44:51;57.72;;;27.88;;
40164;SDS011;25882;51.120;17.248;2022-11-13T10:47:18;55.83;;;27.45;;
40164;SDS011;25882;51.120;17.248;2022-11-13T10:49:44;52.33;;;28.27;;
40164;SDS011;25882;51.120;17.248;2022-11-13T10:52:15;54.63;;;28.17;;
40164;SDS011;25882;51.120;17.248;2022-11-13T10:54:41;56.25;;;29.77;;
40164;SDS011;25882;51.120;17.248;2022-11-13T10:57:17;63.95;;;29.30;;
40164;SDS011;25882;51.120;17.248;2022-11-13T10:59:47;58.38;;;30.48;;
40164;SDS011;25882;51.120;17.248;2022-11-13T11:02:15;56.63;;;29.10;;
40164;SDS011;25882;51.120;17.248;2022-11-13T11:04:42;53.95;;;27.60;;
40164;SDS011;25882;51.120;17.248;2022-11-13T11:07:11;60.83;;;31.33;;
40164;SDS011;25882;51.120;17.248;2022-11-13T11:09:39;58.85;;;33.17;;
40164;SDS011;25882;51.120;17.248;2022-11-13T11:12:08;73.00;;;35.20;;
40164;SDS011;25882;51.120;17.248;2022-11-13T11:14:41;62.50;;;33.05;;
40164;SDS011;25882;51.120;17.248;2022-11-13T11:17:10;63.30;;;32.13;;
40164;SDS011;25882;51.120;17.248;2022-11-13T11:19:38;63.15;;;31.95;;
40164;SDS011;25882;51.120;17.248;2022-11-13T11:22:06;65.18;;;33.03;;
40164;SDS011;25882;51.120;17.248;2022-11-13T11:24:34;65.00;;;31.00;;
40164;SDS011;25882;51.120;17.248;2022-11-13T11:27:02;66.28;;;31.00;;
40164;SDS011;25882;51.120;17.248;2022-11-13T11:29:32;65.68;;;33.47;;
40164;SDS011;25882;51.120;17.248;2022-11-13T11:32:06;63.55;;;30.80;;
40164;SDS011;25882;51.120;17.248;2022-11-13T11:34:40;77.25;;;31.38;;
40164;SDS011;25882;51.120;17.248;2022-11-13T11:37:11;69.53;;;30.77;;
40164;SDS011;25882;51.120;17.248;2022-11-13T11:39:39;60.50;;;31.52;;
40164;SDS011;25882;51.120;17.248;2022-11-13T11:42:14;62.65;;;31.30;;
40164;SDS011;25882;51.120;17.248;2022-11-13T11:44:51;55.42;;;27.08;;
40164;SDS011;25882;51.120;17.248;2022-11-13T11:47:20;62.58;;;29.33;;
40164;SDS011;25882;51.120;17.248;2022-11-13T11:49:50;59.20;;;30.42;;
40164;SDS011;25882;51.120;17.248;2022-11-13T11:52:23;64.40;;;28.77;;
40164;SDS011;25882;51.120;17.248;2022-11-13T11:54:53;66.45;;;31.25;;
40164;SDS011;25882;51.120;17.248;2022-11-13T11:57:30;65.05;;;31.40;;
40164;SDS011;25882;51.120;17.248;2022-11-13T12:00:03;61.97;;;30.13;;
40164;SDS011;25882;51.120;17.248;2022-11-13T12:02:34;64.78;;;29.95;;
40164;SDS011;25882;51.120;17.248;2022-11-13T12:05:17;61.53;;;30.10;;
40164;SDS011;25882;51.120;17.248;2022-11-13T12:07:50;62.83;;;29.85;;
40164;SDS011;25882;51.120;17.248;2022-11-13T12:10:24;66.45;;;31.55;;
40164;SDS011;25882;51.120;17.248;2022-11-13T12:12:56;61.80;;;30.40;;
40164;SDS011;25882;51.120;17.248;2022-11-13T12:15:28;61.42;;;30.42;;
40164;SDS011;25882;51.120;17.248;2022-11-13T12:18:00;66.03;;;31.30;;
40164;SDS011;25882;51.120;17.248;2022-11-13T12:20:34;64.65;;;31.90;;
40164;SDS011;25882;51.120;17.248;2022-11-13T12:23:09;64.53;;;31.63;;
40164;SDS011;25882;51.120;17.248;2022-11-13T12:25:40;61.03;;;32.10;;
40164;SDS011;25882;51.120;17.248;2022-11-13T12:28:11;61.80;;;31.95;;
40164;SDS011;25882;51.120;17.248;2022-11-13T12:30:43;63.20;;;28.02;;
40164;SDS011;25882;51.120;17.248;2022-11-13T12:33:15;63.63;;;29.50;;
40164;SDS011;25882;51.120;17.248;2022-11-13T12:35:44;66.05;;;30.63;;
40164;SDS011;25882;51.120;17.248;2022-11-13T12:38:14;57.60;;;26.60;;
40164;SDS011;25882;51.120;17.248;2022-11-13T12:40:49;58.47;;;29.35;;
40164;SDS011;25882;51.120;17.248;2022-11-13T12:43:25;63.08;;;29.33;;
40164;SDS011;25882;51.120;17.248;2022-11-13T12:45:57;60.28;;;29.27;;
40164;SDS011;25882;51.120;17.248;2022-11-13T12:48:27;61.00;;;29.48;;
40164;SDS011;25882;51.120;17.248;2022-11-13T12:51:01;60.63;;;30.73;;
40164;SDS011;25882;51.120;17.248;2022-11-13T12:53:29;62.90;;;28.52;;
40164;SDS011;25882;51.120;17.248;2022-11-13T12:56:02;58.17;;;28.40;;
40164;SDS011;25882;51.120;17.248;2022-11-13T12:58:34;63.85;;;28.60;;
40164;SDS011;25882;51.120;17.248;2022-11-13T13:01:13;58.63;;;26.55;;
40164;SDS011;25882;51.120;17.248;2022-11-13T13:03:48;62.78;;;28.00;;
40164;SDS011;25882;51.120;17.248;2022-11-13T13:06:27;57.20;;;27.58;;
40164;SDS011;25882;51.120;17.248;2022-11-13T13:09:02;56.70;;;27.30;;
40164;SDS011;25882;51.120;17.248;2022-11-13T13:11:36;66.47;;;29.77;;
40164;SDS011;25882;51.120;17.248;2022-11-13T13:14:10;66.85;;;29.95;;
40164;SDS011;25882;51.120;17.248;2022-11-13T13:16:41;67.57;;;30.00;;
40164;SDS011;25882;51.120;17.248;2022-11-13T13:19:22;70.47;;;30.40;;
40164;SDS011;25882;51.120;17.248;2022-11-13T13:21:53;69.05;;;30.70;;
40164;SDS011;25882;51.120;17.248;2022-11-13T13:24:31;67.10;;;30.48;;
40164;SDS011;25882;51.120;17.248;2022-11-13T13:27:00;65.28;;;29.02;;
40164;SDS011;25882;51.120;17.248;2022-11-13T13:29:28;62.20;;;27.63;;
40164;SDS011;25882;51.120;17.248;2022-11-13T13:32:00;68.00;;;30.52;;
40164;SDS011;25882;51.120;17.248;2022-11-13T13:34:31;70.03;;;29.25;;
40164;SDS011;25882;51.120;17.248;2022-11-13T13:37:13;76.85;;;31.33;;
40164;SDS011;25882;51.120;17.248;2022-11-13T13:39:47;74.00;;;29.98;;
40164;SDS011;25882;51.120;17.248;2022-11-13T13:42:20;73.05;;;30.15;;
40164;SDS011;25882;51.120;17.248;2022-11-13T13:44:54;66.25;;;29.40;;
40164;SDS011;25882;51.120;17.248;2022-11-13T13:47:24;72.03;;;29.90;;
40164;SDS011;25882;51.120;17.248;2022-11-13T13:49:51;66.10;;;29.25;;
40164;SDS011;25882;51.120;17.248;2022-11-13T13:52:21;61.28;;;28.23;;
40164;SDS011;25882;51.120;17.248;2022-11-13T13:54:49;61.33;;;28.35;;
40164;SDS011;25882;51.120;17.248;2022-11-13T13:57:19;71.85;;;30.30;;
40164;SDS011;25882;51.120;17.248;2022-11-13T13:59:47;59.67;;;28.25;;
40164;SDS011;25882;51.120;17.248;2022-11-13T14:04:45;59.55;;;26.08;;
40164;SDS011;25882;51.120;17.248;2022-11-13T14:07:18;73.47;;;31.52;;
40164;SDS011;25882;51.120;17.248;2022-11-13T14:12:33;76.60;;;35.22;;
40164;SDS011;25882;51.120;17.248;2022-11-13T14:15:02;75.00;;;34.05;;
40164;SDS011;25882;51.120;17.248;2022-11-13T14:17:29;79.68;;;35.45;;
40164;SDS011;25882;51.120;17.248;2022-11-13T14:19:57;71.05;;;33.25;;
40164;SDS011;25882;51.120;17.248;2022-11-13T14:22:27;74.50;;;32.55;;
40164;SDS011;25882;51.120;17.248;2022-11-13T14:24:55;71.38;;;33.28;;
40164;SDS011;25882;51.120;17.248;2022-11-13T14:27:24;74.50;;;32.47;;